sensor_id;sensor_type;location;lat;lon;timestamp;pressure;altitude;pressure_sealevel;temperature;humidity
43770;BME280;6597;52.218;9.882;2023-02-27T00:02:03;102007.00;;;-3.37;100.00
43770;BME280;6597;52.218;9.882;2023-02-27T00:04:30;101998.47;;;-3.36;100.00
43770;BME280;6597;52.218;9.882;2023-02-27T00:06:56;101995.97;;;-3.35;100.00
43770;BME280;6597;52.218;9.882;2023-02-27T00:09:23;101996.84;;;-3.34;100.00
43770;BME280;6597;52.218;9.882;2023-02-27T00:11:49;101990.66;;;-3.39;100.00
43770;BME280;6597;52.218;9.882;2023-02-27T00:14:17;102005.25;;;-3.38;100.00
43770;BME280;6597;52.218;9.882;2023-02-27T00:16:44;101999.09;;;-3.42;100.00
43770;BME280;6597;52.218;9.882;2023-02-27T00:19:10;101999.81;;;-3.46;100.00
43770;BME280;6597;52.218;9.882;2023-02-27T00:21:37;102000.69;;;-3.46;100.00
43770;BME280;6597;52.218;9.882;2023-02-27T00:24:05;102003.13;;;-3.49;100.00
43770;BME280;6597;52.218;9.882;2023-02-27T00:26:31;102006.63;;;-3.47;100.00
43770;BME280;6597;52.218;9.882;2023-02-27T00:28:58;101997.97;;;-3.49;100.00
43770;BME280;6597;52.218;9.882;2023-02-27T00:31:26;102000.50;;;-3.50;100.00
43770;BME280;6597;52.218;9.882;2023-02-27T00:33:53;102000.38;;;-3.53;100.00
43770;BME280;6597;52.218;9.882;2023-02-27T00:36:19;101998.47;;;-3.57;100.00
43770;BME280;6597;52.218;9.882;2023-02-27T00:38:46;102000.06;;;-3.59;100.00
43770;BME280;6597;52.218;9.882;2023-02-27T00:41:13;101979.84;;;-3.72;100.00
43770;BME280;6597;52.218;9.882;2023-02-27T00:43:39;102006.72;;;-3.64;100.00
43770;BME280;6597;52.218;9.882;2023-02-27T00:46:06;101998.81;;;-3.69;100.00
43770;BME280;6597;52.218;9.882;2023-02-27T00:48:35;102003.81;;;-3.72;100.00
43770;BME280;6597;52.218;9.882;2023-02-27T00:51:01;101991.69;;;-3.76;100.00
43770;BME280;6597;52.218;9.882;2023-02-27T00:53:28;101996.75;;;-3.78;100.00
43770;BME280;6597;52.218;9.882;2023-02-27T00:55:54;101995.06;;;-3.77;100.00
43770;BME280;6597;52.218;9.882;2023-02-27T00:58:21;101993.31;;;-3.78;100.00
43770;BME280;6597;52.218;9.882;2023-02-27T01:00:48;101997.50;;;-3.80;100.00
43770;BME280;6597;52.218;9.882;2023-02-27T01:03:14;102001.69;;;-3.82;100.00
43770;BME280;6597;52.218;9.882;2023-02-27T01:05:42;101996.38;;;-3.87;100.00
43770;BME280;6597;52.218;9.882;2023-02-27T01:08:09;101971.84;;;-3.99;100.00
43770;BME280;6597;52.218;9.882;2023-02-27T01:10:35;102001.38;;;-3.90;100.00
43770;BME280;6597;52.218;9.882;2023-02-27T01:13:04;101992.69;;;-3.92;100.00
43770;BME280;6597;52.218;9.882;2023-02-27T01:15:32;101992.56;;;-3.95;100.00
43770;BME280;6597;52.218;9.882;2023-02-27T01:17:59;101995.06;;;-3.96;100.00
43770;BME280;6597;52.218;9.882;2023-02-27T01:20:27;102000.06;;;-3.99;100.00
43770;BME280;6597;52.218;9.882;2023-02-27T01:22:55;101989.75;;;-4.01;100.00
43770;BME280;6597;52.218;9.882;2023-02-27T01:25:21;101994.06;;;-4.00;100.00
43770;BME280;6597;52.218;9.882;2023-02-27T01:27:48;101991.50;;;-4.00;100.00
43770;BME280;6597;52.218;9.882;2023-02-27T01:30:15;101999.13;;;-4.01;100.00
43770;BME280;6597;52.218;9.882;2023-02-27T01:32:43;101992.25;;;-4.02;100.00
43770;BME280;6597;52.218;9.882;2023-02-27T01:35:10;101993.72;;;-4.08;100.00
43770;BME280;6597;52.218;9.882;2023-02-27T01:37:37;101988.19;;;-3.97;100.00
43770;BME280;6597;52.218;9.882;2023-02-27T01:40:06;101991.75;;;-3.94;100.00
43770;BME280;6597;52.218;9.882;2023-02-27T01:42:33;101989.31;;;-3.91;100.00
43770;BME280;6597;52.218;9.882;2023-02-27T01:45:25;101986.91;;;-3.88;100.00
43770;BME280;6597;52.218;9.882;2023-02-27T01:47:55;101996.38;;;-3.87;100.00
43770;BME280;6597;52.218;9.882;2023-02-27T01:50:22;102005.81;;;-3.86;100.00
43770;BME280;6597;52.218;9.882;2023-02-27T01:52:52;101999.94;;;-3.83;100.00
43770;BME280;6597;52.218;9.882;2023-02-27T01:55:22;101996.63;;;-3.81;100.00
43770;BME280;6597;52.218;9.882;2023-02-27T01:57:52;101992.50;;;-3.77;100.00
43770;BME280;6597;52.218;9.882;2023-02-27T02:00:19;101995.94;;;-3.77;100.00
43770;BME280;6597;52.218;9.882;2023-02-27T02:02:50;101988.31;;;-3.75;100.00
43770;BME280;6597;52.218;9.882;2023-02-27T02:05:20;101994.38;;;-3.73;100.00
43770;BME280;6597;52.218;9.882;2023-02-27T02:07:48;102003.69;;;-3.75;100.00
43770;BME280;6597;52.218;9.882;2023-02-27T02:10:16;101996.88;;;-3.74;100.00
43770;BME280;6597;52.218;9.882;2023-02-27T02:12:45;101996.88;;;-3.74;100.00
43770;BME280;6597;52.218;9.882;2023-02-27T02:15:13;102002.88;;;-3.74;100.00
43770;BME280;6597;52.218;9.882;2023-02-27T02:17:44;101995.94;;;-3.77;100.00
43770;BME280;6597;52.218;9.882;2023-02-27T02:20:40;102002.00;;;-3.74;100.00
43770;BME280;6597;52.218;9.882;2023-02-27T02:23:32;102003.63;;;-3.77;100.00
43770;BME280;6597;52.218;9.882;2023-02-27T02:26:16;102003.38;;;-3.83;100.00
43770;BME280;6597;52.218;9.882;2023-02-27T02:32:20;102001.44;;;-3.88;100.00
43770;BME280;6597;52.218;9.882;2023-02-27T02:35:15;102001.38;;;-3.90;100.00
43770;BME280;6597;52.218;9.882;2023-02-27T02:38:17;101997.00;;;-3.91;100.00
43770;BME280;6597;52.218;9.882;2023-02-27T02:40:51;102005.38;;;-3.95;100.00
43770;BME280;6597;52.218;9.882;2023-02-27T02:43:24;101998.44;;;-3.97;100.00
43770;BME280;6597;52.218;9.882;2023-02-27T02:46:00;102003.19;;;-4.07;100.00
43770;BME280;6597;52.218;9.882;2023-02-27T02:48:39;102002.03;;;-4.13;100.00
43770;BME280;6597;52.218;9.882;2023-02-27T02:51:15;102008.72;;;-4.17;100.00
43770;BME280;6597;52.218;9.882;2023-02-27T02:53:51;102005.94;;;-4.21;100.00
43770;BME280;6597;52.218;9.882;2023-02-27T02:56:24;101992.84;;;-4.27;100.00
43770;BME280;6597;52.218;9.882;2023-02-27T02:58:57;101994.25;;;-4.34;100.00
43770;BME280;6597;52.218;9.882;2023-02-27T03:01:30;101992.56;;;-4.33;100.00
43770;BME280;6597;52.218;9.882;2023-02-27T03:04:02;101987.25;;;-4.38;100.00
43770;BME280;6597;52.218;9.882;2023-02-27T03:06:34;101991.28;;;-4.43;100.00
43770;BME280;6597;52.218;9.882;2023-02-27T03:09:06;101991.16;;;-4.46;100.00
43770;BME280;6597;52.218;9.882;2023-02-27T03:11:39;101981.56;;;-4.50;100.00
43770;BME280;6597;52.218;9.882;2023-02-27T03:14:09;101985.69;;;-4.54;100.00
43770;BME280;6597;52.218;9.882;2023-02-27T03:16:39;101986.56;;;-4.53;100.00
43770;BME280;6597;52.218;9.882;2023-02-27T03:19:10;102001.06;;;-4.54;100.00
43770;BME280;6597;52.218;9.882;2023-02-27T03:21:42;102001.94;;;-4.53;100.00
43770;BME280;6597;52.218;9.882;2023-02-27T03:24:15;102002.63;;;-4.56;100.00
43770;BME280;6597;52.218;9.882;2023-02-27T03:26:46;101989.81;;;-4.56;100.00
43770;BME280;6597;52.218;9.882;2023-02-27T03:29:19;102004.91;;;-4.44;100.00
43770;BME280;6597;52.218;9.882;2023-02-27T03:31:50;102011.31;;;-4.34;100.00
43770;BME280;6597;52.218;9.882;2023-02-27T03:34:22;101999.56;;;-4.29;100.00
43770;BME280;6597;52.218;9.882;2023-02-27T03:36:53;102008.28;;;-4.26;100.00
43770;BME280;6597;52.218;9.882;2023-02-27T03:39:31;102006.47;;;-4.28;100.00
43770;BME280;6597;52.218;9.882;2023-02-27T03:42:06;102015.91;;;-4.27;100.00
43770;BME280;6597;52.218;9.882;2023-02-27T03:45:01;102009.84;;;-4.29;100.00
43770;BME280;6597;52.218;9.882;2023-02-27T03:47:29;102019.88;;;-4.34;100.00
43770;BME280;6597;52.218;9.882;2023-02-27T03:49:57;102007.75;;;-4.38;100.00
43770;BME280;6597;52.218;9.882;2023-02-27T03:52:25;102006.78;;;-4.40;100.00
43770;BME280;6597;52.218;9.882;2023-02-27T03:54:58;102013.53;;;-4.42;100.00
43770;BME280;6597;52.218;9.882;2023-02-27T03:57:28;102019.47;;;-4.43;100.00
43770;BME280;6597;52.218;9.882;2023-02-27T03:59:56;102022.78;;;-4.46;100.00
43770;BME280;6597;52.218;9.882;2023-02-27T04:02:24;102025.34;;;-4.46;100.00
43770;BME280;6597;52.218;9.882;2023-02-27T04:04:51;102033.69;;;-4.50;100.00
43770;BME280;6597;52.218;9.882;2023-02-27T04:07:53;102026.06;;;-4.48;100.00
43770;BME280;6597;52.218;9.882;2023-02-27T04:10:45;102029.38;;;-4.51;100.00
43770;BME280;6597;52.218;9.882;2023-02-27T04:13:30;102036.19;;;-4.51;100.00
43770;BME280;6597;52.218;9.882;2023-02-27T04:16:32;102038.50;;;-4.56;100.00
43770;BME280;6597;52.218;9.882;2023-02-27T04:19:13;102043.44;;;-4.60;100.00
43770;BME280;6597;52.218;9.882;2023-02-27T04:21:48;102048.41;;;-4.63;100.00
43770;BME280;6597;52.218;9.882;2023-02-27T04:24:32;102049.81;;;-4.70;100.00
43770;BME280;6597;52.218;9.882;2023-02-27T04:27:07;102049.00;;;-4.69;100.00
43770;BME280;6597;52.218;9.882;2023-02-27T04:29:44;102048.28;;;-4.66;100.00
43770;BME280;6597;52.218;9.882;2023-02-27T04:32:18;102049.28;;;-4.63;100.00
43770;BME280;6597;52.218;9.882;2023-02-27T04:34:52;102050.81;;;-4.66;100.00
43770;BME280;6597;52.218;9.882;2023-02-27T04:37:23;102051.63;;;-4.67;100.00
43770;BME280;6597;52.218;9.882;2023-02-27T04:39:55;102063.63;;;-4.66;100.00
43770;BME280;6597;52.218;9.882;2023-02-27T04:42:27;102057.72;;;-4.65;100.00
43770;BME280;6597;52.218;9.882;2023-02-27T04:44:57;102061.22;;;-4.63;100.00
43770;BME280;6597;52.218;9.882;2023-02-27T04:47:28;102058.00;;;-4.59;100.00
43770;BME280;6597;52.218;9.882;2023-02-27T04:50:00;102062.31;;;-4.58;100.00
43770;BME280;6597;52.218;9.882;2023-02-27T04:52:31;102061.34;;;-4.60;100.00
43770;BME280;6597;52.218;9.882;2023-02-27T04:55:05;102061.22;;;-4.63;100.00
43770;BME280;6597;52.218;9.882;2023-02-27T04:57:38;102055.88;;;-4.68;100.00
43770;BME280;6597;52.218;9.882;2023-02-27T05:00:09;102049.94;;;-4.67;100.00
43770;BME280;6597;52.218;9.882;2023-02-27T05:02:41;102055.94;;;-4.66;100.00
43770;BME280;6597;52.218;9.882;2023-02-27T05:05:12;102057.84;;;-4.62;100.00
43770;BME280;6597;52.218;9.882;2023-02-27T05:07:43;102054.47;;;-4.61;100.00
43770;BME280;6597;52.218;9.882;2023-02-27T05:10:20;102054.47;;;-4.61;100.00
43770;BME280;6597;52.218;9.882;2023-02-27T05:12:53;102061.22;;;-4.63;100.00
43770;BME280;6597;52.218;9.882;2023-02-27T05:15:23;102065.41;;;-4.65;100.00
43770;BME280;6597;52.218;9.882;2023-02-27T05:17:55;102060.19;;;-4.67;100.00
43770;BME280;6597;52.218;9.882;2023-02-27T05:20:27;102062.63;;;-4.70;100.00
43770;BME280;6597;52.218;9.882;2023-02-27T05:22:59;102067.16;;;-4.64;100.00
43770;BME280;6597;52.218;9.882;2023-02-27T05:25:34;102064.59;;;-4.64;100.00
43770;BME280;6597;52.218;9.882;2023-02-27T05:28:07;102072.34;;;-4.63;100.00
43770;BME280;6597;52.218;9.882;2023-02-27T05:30:39;102072.50;;;-4.60;100.00
43770;BME280;6597;52.218;9.882;2023-02-27T05:33:12;102069.13;;;-4.59;100.00
43770;BME280;6597;52.218;9.882;2023-02-27T05:35:46;102071.81;;;-4.56;100.00
43770;BME280;6597;52.218;9.882;2023-02-27T05:38:16;102075.44;;;-4.52;100.00
43770;BME280;6597;52.218;9.882;2023-02-27T05:40:47;102067.22;;;-4.45;100.00
43770;BME280;6597;52.218;9.882;2023-02-27T05:43:19;102081.13;;;-4.40;100.00
43770;BME280;6597;52.218;9.882;2023-02-27T05:45:50;102081.25;;;-4.37;100.00
43770;BME280;6597;52.218;9.882;2023-02-27T05:48:22;102082.28;;;-4.33;100.00
43770;BME280;6597;52.218;9.882;2023-02-27T05:50:50;102083.03;;;-4.36;100.00
43770;BME280;6597;52.218;9.882;2023-02-27T05:53:20;102083.97;;;-4.34;100.00
43770;BME280;6597;52.218;9.882;2023-02-27T05:55:49;102085.66;;;-4.34;100.00
43770;BME280;6597;52.218;9.882;2023-02-27T05:58:21;102088.81;;;-4.40;100.00
43770;BME280;6597;52.218;9.882;2023-02-27T06:00:53;102088.59;;;-4.45;100.00
43770;BME280;6597;52.218;9.882;2023-02-27T06:03:23;102088.38;;;-4.49;100.00
43770;BME280;6597;52.218;9.882;2023-02-27T06:05:51;102089.28;;;-4.49;100.00
43770;BME280;6597;52.218;9.882;2023-02-27T06:08:18;102095.34;;;-4.47;100.00
43770;BME280;6597;52.218;9.882;2023-02-27T06:10:45;102103.91;;;-4.46;100.00
43770;BME280;6597;52.218;9.882;2023-02-27T06:13:13;102103.84;;;-4.48;100.00
43770;BME280;6597;52.218;9.882;2023-02-27T06:15:40;102108.16;;;-4.47;100.00
43770;BME280;6597;52.218;9.882;2023-02-27T06:18:08;102113.22;;;-4.48;100.00
43770;BME280;6597;52.218;9.882;2023-02-27T06:20:35;102108.97;;;-4.48;100.00
43770;BME280;6597;52.218;9.882;2023-02-27T06:23:01;102114.16;;;-4.46;100.00
43770;BME280;6597;52.218;9.882;2023-02-27T06:25:28;102108.38;;;-4.42;100.00
43770;BME280;6597;52.218;9.882;2023-02-27T06:27:54;102118.69;;;-4.41;100.00
43770;BME280;6597;52.218;9.882;2023-02-27T06:30:21;102104.13;;;-4.42;100.00
43770;BME280;6597;52.218;9.882;2023-02-27T06:32:49;102121.00;;;-4.27;100.00
43770;BME280;6597;52.218;9.882;2023-02-27T06:35:16;102124.97;;;-4.16;100.00
43770;BME280;6597;52.218;9.882;2023-02-27T06:37:43;102122.09;;;-4.04;100.00
43770;BME280;6597;52.218;9.882;2023-02-27T06:40:10;102109.66;;;-3.95;100.00
43770;BME280;6597;52.218;9.882;2023-02-27T06:42:36;102116.94;;;-3.87;100.00
43770;BME280;6597;52.218;9.882;2023-02-27T06:45:04;102113.09;;;-3.77;100.00
43770;BME280;6597;52.218;9.882;2023-02-27T06:47:31;102123.00;;;-3.65;100.00
43770;BME280;6597;52.218;9.882;2023-02-27T06:49:59;102126.06;;;-3.55;100.00
43770;BME280;6597;52.218;9.882;2023-02-27T06:52:26;102127.34;;;-3.45;100.00
43770;BME280;6597;52.218;9.882;2023-02-27T06:54:53;102124.28;;;-3.36;100.00
43770;BME280;6597;52.218;9.882;2023-02-27T06:57:19;102130.63;;;-3.28;100.00
43770;BME280;6597;52.218;9.882;2023-02-27T06:59:46;102125.84;;;-3.21;100.00
43770;BME280;6597;52.218;9.882;2023-02-27T07:02:13;102127.72;;;-3.17;100.00
43770;BME280;6597;52.218;9.882;2023-02-27T07:04:40;102132.34;;;-3.08;100.00
43770;BME280;6597;52.218;9.882;2023-02-27T07:07:09;102126.53;;;-3.04;100.00
43770;BME280;6597;52.218;9.882;2023-02-27T07:09:36;102122.34;;;-3.02;100.00
43770;BME280;6597;52.218;9.882;2023-02-27T07:12:03;102133.09;;;-2.91;100.00
43770;BME280;6597;52.218;9.882;2023-02-27T07:14:30;102129.25;;;-2.80;100.00
43770;BME280;6597;52.218;9.882;2023-02-27T07:16:56;102143.34;;;-2.70;100.00
43770;BME280;6597;52.218;9.882;2023-02-27T07:19:26;102131.94;;;-2.56;100.00
43770;BME280;6597;52.218;9.882;2023-02-27T07:21:53;102127.81;;;-2.30;100.00
43770;BME280;6597;52.218;9.882;2023-02-27T07:24:21;102123.69;;;-1.58;100.00
43770;BME280;6597;52.218;9.882;2023-02-27T07:26:47;102123.56;;;-0.63;100.00
43770;BME280;6597;52.218;9.882;2023-02-27T07:29:14;102122.00;;;0.28;100.00
43770;BME280;6597;52.218;9.882;2023-02-27T07:31:40;102116.84;;;0.91;97.15
43770;BME280;6597;52.218;9.882;2023-02-27T07:34:07;102117.38;;;1.45;90.48
43770;BME280;6597;52.218;9.882;2023-02-27T07:36:36;102124.81;;;2.07;86.75
43770;BME280;6597;52.218;9.882;2023-02-27T07:39:05;102116.09;;;2.44;80.76
43770;BME280;6597;52.218;9.882;2023-02-27T07:41:34;102137.19;;;2.62;77.28
43770;BME280;6597;52.218;9.882;2023-02-27T07:44:03;102132.50;;;2.90;77.47
43770;BME280;6597;52.218;9.882;2023-02-27T07:46:31;102132.72;;;3.00;74.37
43770;BME280;6597;52.218;9.882;2023-02-27T07:48:58;102126.56;;;2.94;74.25
43770;BME280;6597;52.218;9.882;2023-02-27T07:51:24;102136.31;;;3.08;75.07
43770;BME280;6597;52.218;9.882;2023-02-27T07:53:51;102123.97;;;3.45;75.01
43770;BME280;6597;52.218;9.882;2023-02-27T07:56:17;102116.44;;;3.62;72.16
43770;BME280;6597;52.218;9.882;2023-02-27T07:58:45;102128.78;;;3.77;71.09
43770;BME280;6597;52.218;9.882;2023-02-27T08:01:12;102126.25;;;3.81;71.60
43770;BME280;6597;52.218;9.882;2023-02-27T08:03:39;102125.63;;;3.97;70.17
43770;BME280;6597;52.218;9.882;2023-02-27T08:06:06;102130.53;;;3.78;69.93
43770;BME280;6597;52.218;9.882;2023-02-27T08:08:33;102133.75;;;3.61;70.54
43770;BME280;6597;52.218;9.882;2023-02-27T08:10:59;102136.44;;;3.67;71.50
43770;BME280;6597;52.218;9.882;2023-02-27T08:13:26;102135.25;;;3.49;72.38
43770;BME280;6597;52.218;9.882;2023-02-27T08:15:54;102141.03;;;3.31;73.32
43770;BME280;6597;52.218;9.882;2023-02-27T08:18:20;102150.00;;;2.98;74.45
43770;BME280;6597;52.218;9.882;2023-02-27T08:20:47;102149.44;;;3.16;74.85
43770;BME280;6597;52.218;9.882;2023-02-27T08:23:13;102159.47;;;3.48;72.84
43770;BME280;6597;52.218;9.882;2023-02-27T08:25:40;102164.41;;;3.87;72.42
43770;BME280;6597;52.218;9.882;2023-02-27T08:28:07;102173.16;;;3.90;69.27
43770;BME280;6597;52.218;9.882;2023-02-27T08:30:33;102175.25;;;4.16;70.02
43770;BME280;6597;52.218;9.882;2023-02-27T08:33:01;102178.25;;;3.86;69.25
43770;BME280;6597;52.218;9.882;2023-02-27T08:35:28;102184.13;;;3.23;71.61
43770;BME280;6597;52.218;9.882;2023-02-27T08:37:54;102183.50;;;2.89;73.44
43770;BME280;6597;52.218;9.882;2023-02-27T08:40:21;102187.06;;;2.93;74.81
43770;BME280;6597;52.218;9.882;2023-02-27T08:42:47;102179.91;;;3.26;73.95
43770;BME280;6597;52.218;9.882;2023-02-27T08:45:16;102182.19;;;3.59;72.99
43770;BME280;6597;52.218;9.882;2023-02-27T08:47:42;102177.59;;;3.97;71.91
43770;BME280;6597;52.218;9.882;2023-02-27T08:50:11;102172.09;;;4.40;68.92
43770;BME280;6597;52.218;9.882;2023-02-27T08:52:38;102167.28;;;4.70;68.32
43770;BME280;6597;52.218;9.882;2023-02-27T08:55:05;102172.75;;;4.93;65.68
43770;BME280;6597;52.218;9.882;2023-02-27T08:57:32;102178.25;;;5.20;64.85
43770;BME280;6597;52.218;9.882;2023-02-27T08:59:58;102179.03;;;5.16;64.14
43770;BME280;6597;52.218;9.882;2023-02-27T09:02:25;102186.00;;;5.17;63.66
43770;BME280;6597;52.218;9.882;2023-02-27T09:04:52;102176.47;;;5.19;63.36
43770;BME280;6597;52.218;9.882;2023-02-27T09:07:20;102167.13;;;5.40;63.52
43770;BME280;6597;52.218;9.882;2023-02-27T09:09:47;102185.69;;;5.82;63.61
43770;BME280;6597;52.218;9.882;2023-02-27T09:12:13;102184.19;;;6.12;62.00
43770;BME280;6597;52.218;9.882;2023-02-27T09:14:40;102181.59;;;6.16;60.49
43770;BME280;6597;52.218;9.882;2023-02-27T09:17:06;102183.44;;;6.31;60.11
43770;BME280;6597;52.218;9.882;2023-02-27T09:19:33;102186.94;;;6.33;59.68
43770;BME280;6597;52.218;9.882;2023-02-27T09:22:00;102176.34;;;6.06;59.34
43770;BME280;6597;52.218;9.882;2023-02-27T09:24:28;102178.63;;;5.65;61.53
43770;BME280;6597;52.218;9.882;2023-02-27T09:26:55;102185.34;;;5.38;62.53
43770;BME280;6597;52.218;9.882;2023-02-27T09:29:22;102183.13;;;4.90;64.53
43770;BME280;6597;52.218;9.882;2023-02-27T09:31:50;102183.47;;;4.48;65.42
43770;BME280;6597;52.218;9.882;2023-02-27T09:34:16;102182.50;;;4.40;67.69
43770;BME280;6597;52.218;9.882;2023-02-27T09:36:43;102182.59;;;4.49;67.82
43770;BME280;6597;52.218;9.882;2023-02-27T09:39:09;102177.69;;;4.72;67.75
43770;BME280;6597;52.218;9.882;2023-02-27T09:41:45;102175.69;;;5.26;66.01
43770;BME280;6597;52.218;9.882;2023-02-27T09:44:24;102183.09;;;5.82;63.42
43770;BME280;6597;52.218;9.882;2023-02-27T09:46:52;102179.97;;;6.32;61.98
43770;BME280;6597;52.218;9.882;2023-02-27T09:49:21;102175.88;;;7.06;60.02
43770;BME280;6597;52.218;9.882;2023-02-27T09:51:50;102169.84;;;7.53;57.58
43770;BME280;6597;52.218;9.882;2023-02-27T09:54:18;102167.22;;;7.85;55.22
43770;BME280;6597;52.218;9.882;2023-02-27T09:56:49;102158.41;;;8.28;54.66
43770;BME280;6597;52.218;9.882;2023-02-27T09:59:27;102153.84;;;8.78;52.76
43770;BME280;6597;52.218;9.882;2023-02-27T10:01:59;102156.38;;;8.96;51.97
43770;BME280;6597;52.218;9.882;2023-02-27T10:04:35;102162.22;;;9.34;51.01
43770;BME280;6597;52.218;9.882;2023-02-27T10:07:13;102164.88;;;9.28;51.07
43770;BME280;6597;52.218;9.882;2023-02-27T10:09:53;102155.16;;;9.41;51.02
43770;BME280;6597;52.218;9.882;2023-02-27T10:12:38;102167.13;;;9.74;50.10
43770;BME280;6597;52.218;9.882;2023-02-27T10:15:11;102174.25;;;9.61;49.88
43770;BME280;6597;52.218;9.882;2023-02-27T10:17:44;102163.19;;;10.19;48.56
43770;BME280;6597;52.218;9.882;2023-02-27T10:20:20;102156.53;;;10.66;47.96
43770;BME280;6597;52.218;9.882;2023-02-27T10:22:49;102162.47;;;10.80;46.90
43770;BME280;6597;52.218;9.882;2023-02-27T10:25:18;102157.41;;;10.65;46.80
43770;BME280;6597;52.218;9.882;2023-02-27T10:27:48;102162.91;;;10.47;46.40
43770;BME280;6597;52.218;9.882;2023-02-27T10:30:20;102162.09;;;10.42;46.99
43770;BME280;6597;52.218;9.882;2023-02-27T10:32:48;102155.72;;;10.61;46.87
43770;BME280;6597;52.218;9.882;2023-02-27T10:35:25;102152.94;;;10.73;46.35
43770;BME280;6597;52.218;9.882;2023-02-27T10:37:57;102158.63;;;11.03;46.50
43770;BME280;6597;52.218;9.882;2023-02-27T10:40:26;102162.75;;;11.22;45.42
43770;BME280;6597;52.218;9.882;2023-02-27T10:42:55;102168.47;;;10.88;45.71
43770;BME280;6597;52.218;9.882;2023-02-27T10:45:24;102167.09;;;10.60;46.87
43770;BME280;6597;52.218;9.882;2023-02-27T10:47:51;102175.09;;;10.51;47.42
43770;BME280;6597;52.218;9.882;2023-02-27T10:50:24;102169.47;;;10.03;46.17
43770;BME280;6597;52.218;9.882;2023-02-27T10:52:54;102169.13;;;9.46;47.45
43770;BME280;6597;52.218;9.882;2023-02-27T10:55:23;102174.75;;;8.88;48.85
43770;BME280;6597;52.218;9.882;2023-02-27T10:57:52;102174.81;;;8.81;50.09
43770;BME280;6597;52.218;9.882;2023-02-27T11:00:33;102173.22;;;8.40;50.58
43770;BME280;6597;52.218;9.882;2023-02-27T11:03:04;102166.31;;;7.99;51.79
43770;BME280;6597;52.218;9.882;2023-02-27T11:05:32;102168.03;;;7.03;54.17
43770;BME280;6597;52.218;9.882;2023-02-27T11:08:11;102162.72;;;6.65;56.84
43770;BME280;6597;52.218;9.882;2023-02-27T11:10:56;102172.38;;;6.95;56.64
43770;BME280;6597;52.218;9.882;2023-02-27T11:13:25;102170.66;;;7.04;55.02
43770;BME280;6597;52.218;9.882;2023-02-27T11:16:14;102169.81;;;7.16;54.19
43770;BME280;6597;52.218;9.882;2023-02-27T11:18:42;102160.25;;;7.42;54.39
43770;BME280;6597;52.218;9.882;2023-02-27T11:21:22;102166.34;;;7.70;54.46
43770;BME280;6597;52.218;9.882;2023-02-27T11:23:57;102160.16;;;8.22;52.67
43770;BME280;6597;52.218;9.882;2023-02-27T11:26:27;102158.34;;;8.56;51.34
43770;BME280;6597;52.218;9.882;2023-02-27T11:29:12;102151.13;;;8.97;51.29
43770;BME280;6597;52.218;9.882;2023-02-27T11:31:46;102153.66;;;9.08;50.22
43770;BME280;6597;52.218;9.882;2023-02-27T11:34:19;102143.06;;;9.26;49.23
43770;BME280;6597;52.218;9.882;2023-02-27T11:36:47;102149.94;;;9.40;48.97
43770;BME280;6597;52.218;9.882;2023-02-27T11:39:25;102138.63;;;9.34;49.99
43770;BME280;6597;52.218;9.882;2023-02-27T11:41:53;102134.59;;;8.88;47.66
43770;BME280;6597;52.218;9.882;2023-02-27T11:44:25;102123.47;;;8.43;49.01
43770;BME280;6597;52.218;9.882;2023-02-27T11:47:09;102134.78;;;8.54;49.71
43770;BME280;6597;52.218;9.882;2023-02-27T11:49:48;102135.72;;;8.36;50.31
43770;BME280;6597;52.218;9.882;2023-02-27T11:52:23;102140.94;;;8.39;52.00
43770;BME280;6597;52.218;9.882;2023-02-27T11:54:54;102133.94;;;8.48;50.64
43770;BME280;6597;52.218;9.882;2023-02-27T11:57:24;102132.91;;;8.82;50.18
43770;BME280;6597;52.218;9.882;2023-02-27T11:59:57;102138.28;;;8.50;51.21
43770;BME280;6597;52.218;9.882;2023-02-27T12:02:34;102139.28;;;7.99;52.49
43770;BME280;6597;52.218;9.882;2023-02-27T12:05:11;102143.69;;;7.86;53.24
43770;BME280;6597;52.218;9.882;2023-02-27T12:07:44;102134.91;;;8.13;52.38
43770;BME280;6597;52.218;9.882;2023-02-27T12:10:16;102151.53;;;7.68;54.32
43770;BME280;6597;52.218;9.882;2023-02-27T12:12:47;102141.03;;;7.98;52.72
43770;BME280;6597;52.218;9.882;2023-02-27T12:15:22;102145.31;;;8.34;51.35
43770;BME280;6597;52.218;9.882;2023-02-27T12:17:58;102132.28;;;8.18;51.08
43770;BME280;6597;52.218;9.882;2023-02-27T12:20:28;102138.44;;;7.94;52.46
43770;BME280;6597;52.218;9.882;2023-02-27T12:22:55;102135.78;;;8.03;52.97
43770;BME280;6597;52.218;9.882;2023-02-27T12:25:36;102143.59;;;8.12;53.73
43770;BME280;6597;52.218;9.882;2023-02-27T12:28:13;102140.16;;;8.01;53.46
43770;BME280;6597;52.218;9.882;2023-02-27T12:30:47;102141.81;;;8.32;53.02
43770;BME280;6597;52.218;9.882;2023-02-27T12:33:24;102144.19;;;8.90;50.85
43770;BME280;6597;52.218;9.882;2023-02-27T12:35:59;102144.56;;;9.58;48.16
43770;BME280;6597;52.218;9.882;2023-02-27T12:38:27;102139.00;;;9.91;46.79
43770;BME280;6597;52.218;9.882;2023-02-27T12:41:03;102137.06;;;10.07;45.92
43770;BME280;6597;52.218;9.882;2023-02-27T12:43:37;102138.56;;;10.33;45.38
43770;BME280;6597;52.218;9.882;2023-02-27T12:46:24;102139.06;;;10.62;45.47
43770;BME280;6597;52.218;9.882;2023-02-27T12:49:13;102133.22;;;10.43;46.19
43770;BME280;6597;52.218;9.882;2023-02-27T12:51:49;102133.34;;;10.29;46.91
43770;BME280;6597;52.218;9.882;2023-02-27T12:54:26;102135.88;;;10.37;46.42
43770;BME280;6597;52.218;9.882;2023-02-27T12:57:01;102132.38;;;10.38;45.88
43770;BME280;6597;52.218;9.882;2023-02-27T12:59:46;102139.97;;;9.83;45.33
43770;BME280;6597;52.218;9.882;2023-02-27T13:05:11;102140.88;;;8.56;48.63
43770;BME280;6597;52.218;9.882;2023-02-27T13:07:46;102148.06;;;7.64;51.36
43770;BME280;6597;52.218;9.882;2023-02-27T13:10:20;102142.81;;;6.99;52.97
43770;BME280;6597;52.218;9.882;2023-02-27T13:12:54;102147.78;;;6.27;55.93
43770;BME280;6597;52.218;9.882;2023-02-27T13:15:27;102146.09;;;6.37;56.48
43770;BME280;6597;52.218;9.882;2023-02-27T13:18:00;102138.44;;;7.05;55.14
43770;BME280;6597;52.218;9.882;2023-02-27T13:20:36;102126.25;;;7.90;52.62
43770;BME280;6597;52.218;9.882;2023-02-27T13:23:12;102120.69;;;8.77;50.40
43770;BME280;6597;52.218;9.882;2023-02-27T13:25:43;102119.75;;;8.90;49.75